createdAt,value
2018-02-13T00:02:18.975Z,5.17
2018-02-13T00:04:46.410Z,5.47
2018-02-13T00:07:13.855Z,4.67
2018-02-13T00:09:41.290Z,5.13
2018-02-13T00:12:09.496Z,4.60
2018-02-13T00:14:37.703Z,5.13
2018-02-13T00:17:05.910Z,5.67
2018-02-13T00:19:33.343Z,5.17
2018-02-13T00:22:00.783Z,5.57
2018-02-13T00:24:28.219Z,5.43
2018-02-13T00:26:55.663Z,5.13
2018-02-13T00:29:23.099Z,5.67
2018-02-13T00:31:51.310Z,4.90
2018-02-13T00:34:18.740Z,4.90
2018-02-13T00:36:46.188Z,4.53
2018-02-13T00:39:13.618Z,4.43
2018-02-13T00:41:41.063Z,5.07
2018-02-13T00:44:08.490Z,5.00
2018-02-13T00:46:36.706Z,4.17
2018-02-13T00:49:04.911Z,5.40
2018-02-13T00:51:32.350Z,3.83
2018-02-13T00:53:59.783Z,4.87
2018-02-13T00:56:27.223Z,4.23
2018-02-13T00:58:54.658Z,3.30
2018-02-13T01:01:22.108Z,4.30
2018-02-13T01:03:50.306Z,3.57
2018-02-13T01:06:18.511Z,3.97
2018-02-13T01:08:45.942Z,4.33
2018-02-13T01:11:13.402Z,4.33
2018-02-13T01:13:40.867Z,3.43
2018-02-13T01:16:08.302Z,4.00
2018-02-13T01:18:35.739Z,3.40
2018-02-13T01:21:03.166Z,3.60
2018-02-13T01:23:30.608Z,3.53
2018-02-13T01:25:58.035Z,3.60
2018-02-13T01:28:25.471Z,3.80
2018-02-13T01:30:52.904Z,4.40
2018-02-13T01:33:20.334Z,3.23
2018-02-13T01:35:47.772Z,3.80
2018-02-13T01:38:15.979Z,3.43
2018-02-13T01:40:43.406Z,3.50
2018-02-13T01:43:10.844Z,3.90
2018-02-13T01:45:38.282Z,3.70
2018-02-13T01:48:05.717Z,4.27
2018-02-13T01:50:33.146Z,3.97
2018-02-13T01:53:00.587Z,4.00
2018-02-13T01:55:28.016Z,3.90
2018-02-13T01:57:55.467Z,3.70
2018-02-13T02:00:22.895Z,3.40
2018-02-13T02:02:51.099Z,4.10
2018-02-13T02:05:19.295Z,4.10
2018-02-13T02:07:47.550Z,3.50
2018-02-13T02:10:15.902Z,3.90
2018-02-13T02:12:44.111Z,3.83
2018-02-13T02:15:11.546Z,3.57
2018-02-13T02:17:38.979Z,3.80
2018-02-13T02:20:06.406Z,3.10
2018-02-13T02:22:33.846Z,3.80
2018-02-13T02:25:01.279Z,4.10
2018-02-13T02:27:28.715Z,2.93
2018-02-13T02:29:56.157Z,3.60
2018-02-13T02:32:24.395Z,3.23
2018-02-13T02:34:51.822Z,3.70
2018-02-13T02:37:20.032Z,3.40
2018-02-13T02:39:48.231Z,2.93
2018-02-13T02:42:16.439Z,3.37
2018-02-13T02:44:43.867Z,2.70
2018-02-13T02:47:11.315Z,3.87
2018-02-13T02:49:38.744Z,3.40
2018-02-13T02:52:06.187Z,3.23
2018-02-13T02:54:33.658Z,3.40
2018-02-13T02:57:01.091Z,3.70
2018-02-13T02:59:28.555Z,3.83
2018-02-13T03:01:55.991Z,2.80
2018-02-13T03:04:23.435Z,3.00
2018-02-13T03:06:50.862Z,3.00
2018-02-13T03:09:18.299Z,3.50
2018-02-13T03:11:46.498Z,3.07
2018-02-13T03:14:14.703Z,2.70
2018-02-13T03:16:42.894Z,3.27
2018-02-13T03:19:11.103Z,3.20
2018-02-13T03:21:39.298Z,3.03
2018-02-13T03:24:07.513Z,3.20
2018-02-13T03:26:35.703Z,4.10
2018-02-13T03:29:03.914Z,3.63
2018-02-13T03:31:31.347Z,3.83
2018-02-13T03:33:58.783Z,3.30
2018-02-13T03:36:26.215Z,3.93
2018-02-13T03:38:53.659Z,3.47
2018-02-13T03:41:21.091Z,3.67
2018-02-13T03:43:49.299Z,3.17
2018-02-13T03:46:17.494Z,2.73
2018-02-13T03:48:45.708Z,2.97
2018-02-13T03:51:13.139Z,3.77
2018-02-13T03:53:40.576Z,3.63
2018-02-13T03:56:08.011Z,4.00
2018-02-13T03:58:35.446Z,2.90
2018-02-13T04:01:02.885Z,3.33
2018-02-13T04:03:31.090Z,3.77
2018-02-13T04:05:59.282Z,3.93
2018-02-13T04:08:27.491Z,3.30
2018-02-13T04:10:55.691Z,4.10
2018-02-13T04:13:23.895Z,3.97
2018-02-13T04:15:51.327Z,3.30
2018-02-13T04:18:18.770Z,3.13
2018-02-13T04:20:46.199Z,4.57
2018-02-13T04:23:13.634Z,4.97
2018-02-13T04:25:41.105Z,4.07
2018-02-13T04:28:08.546Z,3.93
2018-02-13T04:30:35.970Z,4.60
2018-02-13T04:33:03.409Z,4.37
2018-02-13T04:35:30.843Z,6.40
2018-02-13T04:37:58.282Z,4.57
2018-02-13T04:40:26.478Z,3.93
2018-02-13T04:42:54.688Z,4.10
2018-02-13T04:45:22.887Z,4.00
2018-02-13T04:47:51.087Z,4.57
2018-02-13T04:50:18.523Z,4.37
2018-02-13T04:52:45.963Z,4.03
2018-02-13T04:55:13.398Z,5.10
2018-02-13T04:57:40.874Z,4.30
2018-02-13T05:00:08.306Z,3.23
2018-02-13T05:02:35.739Z,3.97
2018-02-13T05:05:03.176Z,4.60
2018-02-13T05:07:30.602Z,4.30
2018-02-13T05:09:58.042Z,4.20
2018-02-13T05:12:25.467Z,3.73
2018-02-13T05:14:52.909Z,3.87
2018-02-13T05:17:20.343Z,4.03
2018-02-13T05:19:48.547Z,4.33
2018-02-13T05:22:16.743Z,3.53
2018-02-13T05:24:44.951Z,4.37
2018-02-13T05:27:12.378Z,3.80
2018-02-13T05:29:39.815Z,5.00
2018-02-13T05:32:07.250Z,4.50
2018-02-13T05:34:34.683Z,4.73
2018-02-13T05:37:02.117Z,3.67
2018-02-13T05:39:29.624Z,4.23
2018-02-13T05:41:57.061Z,3.93
2018-02-13T05:44:24.499Z,4.40
2018-02-13T05:46:51.927Z,4.47
2018-02-13T05:49:19.363Z,5.10
2018-02-13T05:51:46.794Z,5.03
2018-02-13T05:54:14.235Z,5.60
2018-02-13T05:56:41.666Z,5.37
2018-02-13T05:59:09.103Z,4.93
2018-02-13T06:01:36.539Z,4.90
2018-02-13T06:04:04.747Z,6.10
2018-02-13T06:06:32.951Z,5.60
2018-02-13T06:09:00.386Z,5.03
2018-02-13T06:11:27.835Z,4.57
2018-02-13T06:13:55.258Z,4.37
2018-02-13T06:16:22.699Z,4.33
2018-02-13T06:18:50.186Z,4.10
2018-02-13T06:21:17.627Z,4.70
2018-02-13T06:23:45.836Z,3.73
2018-02-13T06:26:13.263Z,5.03
2018-02-13T06:28:40.708Z,4.20
2018-02-13T06:31:08.139Z,5.67
2018-02-13T06:33:35.579Z,5.70
2018-02-13T06:36:03.024Z,5.40
2018-02-13T06:38:31.222Z,5.50
2018-02-13T06:40:58.666Z,6.10
2018-02-13T06:43:26.111Z,5.63
2018-02-13T06:45:53.550Z,4.77
2018-02-13T06:48:21.748Z,4.80
2018-02-13T06:50:49.951Z,5.77
2018-02-13T06:53:18.147Z,5.87
2018-02-13T06:55:46.351Z,5.70
2018-02-13T06:58:14.555Z,5.77
2018-02-13T07:00:42.755Z,6.73
2018-02-13T07:03:10.950Z,7.70
2018-02-13T07:05:39.158Z,6.30
2018-02-13T07:08:07.346Z,6.00
2018-02-13T07:10:35.547Z,4.87
2018-02-13T07:13:03.743Z,5.00
2018-02-13T07:15:31.952Z,5.20
2018-02-13T07:18:00.153Z,5.60
2018-02-13T07:20:28.359Z,5.10
2018-02-13T07:22:55.790Z,6.40
2018-02-13T07:25:23.226Z,6.50
2018-02-13T07:27:50.663Z,5.73
2018-02-13T07:30:18.103Z,6.20
2018-02-13T07:32:45.534Z,6.50
2018-02-13T07:35:13.747Z,7.67
2018-02-13T07:37:41.943Z,8.13
2018-02-13T07:40:10.146Z,7.97
2018-02-13T07:42:37.582Z,9.47
2018-02-13T07:45:05.028Z,10.50
2018-02-13T07:47:32.467Z,10.10
2018-02-13T07:49:59.915Z,11.17
2018-02-13T07:52:27.355Z,9.50
2018-02-13T07:54:55.566Z,7.90
2018-02-13T07:57:23.004Z,9.33
2018-02-13T07:59:50.442Z,8.70
2018-02-13T08:02:17.902Z,9.63
2018-02-13T08:04:45.331Z,8.10
2018-02-13T08:07:12.773Z,7.30
2018-02-13T08:09:40.214Z,7.60
2018-02-13T08:12:08.414Z,7.67
2018-02-13T08:14:35.850Z,7.30
2018-02-13T08:17:03.282Z,7.60
2018-02-13T08:19:31.502Z,7.93
2018-02-13T08:21:58.934Z,8.07
2018-02-13T08:24:26.383Z,7.57
2018-02-13T08:26:53.819Z,8.17
2018-02-13T08:29:21.259Z,8.40
2018-02-13T08:31:48.690Z,8.13
2018-02-13T08:34:16.899Z,8.73
2018-02-13T08:36:44.330Z,8.40
2018-02-13T08:39:11.766Z,8.10
2018-02-13T08:41:39.199Z,8.43
2018-02-13T08:44:06.631Z,9.20
2018-02-13T08:46:34.087Z,7.80
2018-02-13T08:49:02.290Z,7.37
2018-02-13T08:51:30.495Z,7.97
2018-02-13T08:53:58.691Z,8.27
2018-02-13T08:56:26.915Z,8.20
2018-02-13T08:58:54.350Z,7.70
2018-02-13T09:01:21.795Z,8.70
2018-02-13T09:03:49.227Z,7.63
2018-02-13T09:06:17.430Z,8.80
2018-02-13T09:08:44.871Z,8.80
2018-02-13T09:11:13.186Z,10.40
2018-02-13T09:13:40.600Z,7.70
2018-02-13T09:16:08.039Z,8.13
2018-02-13T09:18:36.243Z,6.70
2018-02-13T09:21:03.688Z,6.80
2018-02-13T09:23:31.123Z,6.47
2018-02-13T09:25:59.322Z,5.90
2018-02-13T09:28:27.527Z,5.60
2018-02-13T09:30:55.727Z,4.60
2018-02-13T09:33:23.941Z,5.00
2018-02-13T09:35:52.147Z,6.20
2018-02-13T09:38:19.575Z,5.30
2018-02-13T09:40:47.015Z,4.90
2018-02-13T09:43:14.450Z,4.53
2018-02-13T09:45:41.891Z,4.87
2018-02-13T09:48:09.318Z,5.13
2018-02-13T09:50:36.750Z,4.80
2018-02-13T09:53:04.191Z,5.60
2018-02-13T09:55:31.635Z,6.23
2018-02-13T09:57:59.074Z,6.83
2018-02-13T10:00:27.279Z,7.53
2018-02-13T10:02:54.724Z,6.20
2018-02-13T10:05:22.158Z,7.20
2018-02-13T10:07:49.595Z,7.17
2018-02-13T10:10:17.738Z,5.93
2018-02-13T10:12:45.175Z,6.57
2018-02-13T10:15:13.419Z,5.50
2018-02-13T10:17:40.851Z,5.87
2018-02-13T10:20:09.046Z,5.63
2018-02-13T10:22:36.484Z,4.67
2018-02-13T10:25:03.916Z,5.50
2018-02-13T10:27:31.360Z,5.20
2018-02-13T10:29:58.789Z,4.77
2018-02-13T10:32:26.990Z,5.50
2018-02-13T10:34:55.178Z,5.17
2018-02-13T10:37:23.383Z,5.13
2018-02-13T10:39:51.575Z,4.47
2018-02-13T10:42:19.006Z,3.90
2018-02-13T10:44:46.435Z,4.20
2018-02-13T10:47:14.643Z,3.90
2018-02-13T10:49:42.858Z,4.50
2018-02-13T10:52:11.163Z,5.20
2018-02-13T10:54:39.347Z,4.27
2018-02-13T10:57:07.556Z,3.50
2018-02-13T10:59:35.749Z,3.70
2018-02-13T11:02:09.584Z,3.00
2018-02-13T11:04:37.778Z,2.90
2018-02-13T11:07:05.971Z,4.20
2018-02-13T11:09:34.176Z,4.77
2018-02-13T11:12:01.599Z,3.67
2018-02-13T11:14:29.035Z,4.63
2018-02-13T11:16:56.462Z,3.73
2018-02-13T11:19:23.895Z,4.50
2018-02-13T11:21:51.320Z,4.13
2018-02-13T11:24:19.523Z,3.40
2018-02-13T11:26:47.713Z,4.67
2018-02-13T11:29:15.916Z,3.73
2018-02-13T11:31:44.105Z,3.03
2018-02-13T11:34:12.303Z,3.57
2018-02-13T11:36:39.738Z,3.33
2018-02-13T11:39:07.179Z,3.50
2018-02-13T11:41:34.603Z,3.40
2018-02-13T11:44:02.038Z,2.93
2018-02-13T11:46:29.463Z,3.40
2018-02-13T11:48:56.898Z,3.30
2018-02-13T11:51:24.329Z,3.40
2018-02-13T11:53:51.755Z,3.20
2018-02-13T11:56:19.186Z,3.40
2018-02-13T11:58:46.619Z,3.33
2018-02-13T12:01:14.046Z,3.70
2018-02-13T12:03:41.479Z,3.30
2018-02-13T12:06:08.907Z,3.53
2018-02-13T12:08:36.342Z,3.40
2018-02-13T12:11:03.771Z,3.70
2018-02-13T12:13:31.203Z,3.83
2018-02-13T12:15:58.634Z,5.53
2018-02-13T12:18:26.071Z,4.37
2018-02-13T12:20:53.494Z,3.00
2018-02-13T12:23:20.926Z,3.47
2018-02-13T12:25:48.355Z,3.43
2018-02-13T12:28:15.834Z,3.10
2018-02-13T12:30:43.260Z,2.80
2018-02-13T12:33:10.734Z,3.00
2018-02-13T12:35:38.943Z,2.97
2018-02-13T12:38:06.375Z,2.40
2018-02-13T12:40:33.806Z,2.33
2018-02-13T12:43:01.237Z,3.23
2018-02-13T12:45:28.669Z,2.37
2018-02-13T12:47:56.095Z,2.67
2018-02-13T12:50:23.535Z,2.80
2018-02-13T12:52:50.954Z,3.50
2018-02-13T12:55:18.390Z,3.33
2018-02-13T12:57:45.818Z,3.10
2018-02-13T13:00:13.303Z,2.90
2018-02-13T13:02:41.478Z,2.77
2018-02-13T13:05:08.915Z,2.73
2018-02-13T13:07:36.351Z,6.70
2018-02-13T13:10:03.791Z,2.60
2018-02-13T13:12:31.219Z,2.83
2018-02-13T13:14:58.654Z,2.70
2018-02-13T13:17:26.078Z,2.40
2018-02-13T13:19:53.507Z,2.57
2018-02-13T13:22:21.703Z,2.83
2018-02-13T13:24:49.903Z,2.10
2018-02-13T13:27:18.090Z,2.70
2018-02-13T13:29:46.321Z,2.63
2018-02-13T13:32:13.738Z,1.93
2018-02-13T13:34:41.174Z,3.70
2018-02-13T13:37:08.594Z,2.10
2018-02-13T13:39:36.035Z,2.20
2018-02-13T13:42:03.536Z,3.00
2018-02-13T13:44:30.981Z,3.77
2018-02-13T13:46:58.403Z,3.97
2018-02-13T13:49:25.879Z,4.50
2018-02-13T13:51:53.271Z,4.70
2018-02-13T13:54:21.540Z,6.47
2018-02-13T13:56:49.731Z,4.10
2018-02-13T13:59:17.174Z,3.70
2018-02-13T14:01:44.598Z,4.13
2018-02-13T14:04:12.804Z,3.20
2018-02-13T14:06:40.995Z,4.10
2018-02-13T14:09:09.203Z,4.00
2018-02-13T14:11:37.395Z,4.03
2018-02-13T14:14:05.596Z,3.70
2018-02-13T14:16:33.791Z,4.53
2018-02-13T14:19:01.998Z,4.03
2018-02-13T14:21:30.194Z,4.80
2018-02-13T14:23:58.390Z,5.23
2018-02-13T14:26:26.585Z,4.10
2018-02-13T14:28:55.324Z,5.50
2018-02-13T14:31:23.518Z,4.40
2018-02-13T14:33:51.715Z,3.50
2018-02-13T14:36:19.955Z,3.03
2018-02-13T14:38:47.378Z,2.47
2018-02-13T14:41:14.806Z,3.10
2018-02-13T14:43:42.239Z,3.60
2018-02-13T14:46:09.780Z,3.60
2018-02-13T14:48:37.202Z,3.43
2018-02-13T14:51:04.639Z,3.50
2018-02-13T14:53:32.133Z,3.77
2018-02-13T14:55:59.559Z,4.27
2018-02-13T14:58:26.991Z,3.90
2018-02-13T15:00:54.426Z,4.00
2018-02-13T15:03:21.866Z,3.50
2018-02-13T15:05:49.299Z,3.93
2018-02-13T15:08:17.562Z,3.50
2018-02-13T15:10:45.018Z,3.80
2018-02-13T15:13:12.446Z,3.57
2018-02-13T15:15:42.518Z,3.40
2018-02-13T15:18:13.175Z,3.53
2018-02-13T15:20:41.407Z,6.33
2018-02-13T15:23:08.890Z,3.37
2018-02-13T15:25:36.370Z,3.67
2018-02-13T15:28:03.803Z,3.83
2018-02-13T15:30:31.234Z,3.47
2018-02-13T15:32:58.662Z,3.87
2018-02-13T15:35:26.103Z,4.27
2018-02-13T15:37:53.555Z,4.10
2018-02-13T15:40:21.072Z,3.67
2018-02-13T15:42:48.505Z,3.40
2018-02-13T15:45:16.031Z,5.67
2018-02-13T15:47:43.446Z,4.40
2018-02-13T15:50:10.895Z,2.53
2018-02-13T15:52:38.370Z,3.53
2018-02-13T15:55:05.862Z,3.50
2018-02-13T15:57:33.339Z,3.57
2018-02-13T16:00:00.833Z,3.93
2018-02-13T16:02:28.267Z,4.00
2018-02-13T16:04:56.511Z,3.90
2018-02-13T16:07:23.950Z,3.30
2018-02-13T16:09:52.141Z,3.70
2018-02-13T16:12:19.670Z,4.00
2018-02-13T16:14:47.094Z,4.50
2018-02-13T16:17:15.347Z,4.30
2018-02-13T16:19:42.775Z,4.40
2018-02-13T16:22:10.320Z,3.30
2018-02-13T16:24:37.799Z,3.97
2018-02-13T16:27:05.282Z,3.93
2018-02-13T16:29:32.659Z,3.70
2018-02-13T16:32:00.086Z,3.73
2018-02-13T16:34:27.519Z,3.63
2018-02-13T16:36:54.966Z,4.03
2018-02-13T16:39:22.395Z,3.97
2018-02-13T16:41:49.871Z,3.87
2018-02-13T16:44:17.319Z,4.00
2018-02-13T16:46:45.514Z,4.20
2018-02-13T16:49:13.718Z,4.70
2018-02-13T16:51:41.943Z,3.50
2018-02-13T16:54:09.382Z,3.70
2018-02-13T16:56:36.903Z,3.50
2018-02-13T16:59:04.338Z,4.10
2018-02-13T17:01:31.774Z,4.20
2018-02-13T17:03:59.250Z,3.77
2018-02-13T17:06:26.735Z,3.90
2018-02-13T17:08:54.214Z,3.53
2018-02-13T17:11:21.694Z,3.63
2018-02-13T17:13:49.669Z,4.33
2018-02-13T17:16:17.170Z,3.10
2018-02-13T17:18:44.602Z,3.80
2018-02-13T17:21:12.130Z,2.70
2018-02-13T17:23:39.567Z,4.00
2018-02-13T17:26:07.098Z,4.10
2018-02-13T17:28:34.583Z,3.93
2018-02-13T17:31:02.079Z,3.40
2018-02-13T17:33:29.515Z,3.83
2018-02-13T17:35:57.710Z,4.07
2018-02-13T17:38:25.911Z,3.17
2018-02-13T17:40:54.112Z,3.97
2018-02-13T17:43:22.347Z,3.13
2018-02-13T17:45:49.831Z,4.10
2018-02-13T17:48:17.327Z,4.03
2018-02-13T17:50:44.762Z,4.20
2018-02-13T17:53:12.963Z,4.33
2018-02-13T17:55:41.175Z,4.67
2018-02-13T17:58:09.371Z,4.07
2018-02-13T18:00:37.570Z,4.73
2018-02-13T18:03:05.769Z,5.37
2018-02-13T18:05:34.002Z,4.80
2018-02-13T18:08:01.487Z,4.80
2018-02-13T18:10:28.927Z,4.63
2018-02-13T18:12:56.360Z,3.80
2018-02-13T18:15:23.794Z,5.70
2018-02-13T18:17:51.231Z,5.77
2018-02-13T18:20:18.671Z,6.00
2018-02-13T18:22:46.871Z,6.17
2018-02-13T18:25:15.075Z,5.27
2018-02-13T18:27:43.274Z,6.70
2018-02-13T18:30:11.477Z,6.30
2018-02-13T18:32:39.680Z,6.30
2018-02-13T18:35:07.884Z,5.67
2018-02-13T18:37:36.079Z,6.30
2018-02-13T18:40:04.284Z,7.27
2018-02-13T18:42:32.489Z,7.40
2018-02-13T18:44:59.934Z,7.03
2018-02-13T18:47:28.139Z,7.47
2018-02-13T18:49:55.598Z,6.60
2018-02-13T18:54:51.210Z,7.10
2018-02-13T18:57:19.423Z,6.40
2018-02-13T18:59:47.620Z,7.57
2018-02-13T19:02:15.822Z,5.83
2018-02-13T19:04:44.020Z,7.80
2018-02-13T19:07:12.227Z,5.87
2018-02-13T19:09:39.666Z,6.80
2018-02-13T19:12:07.102Z,7.90
2018-02-13T19:14:34.535Z,7.10
2018-02-13T19:19:29.412Z,6.50
2018-02-13T19:21:56.853Z,6.33
2018-02-13T19:24:24.289Z,6.87
2018-02-13T19:26:52.496Z,7.20
2018-02-13T19:29:20.703Z,7.13
2018-02-13T19:31:48.139Z,6.60
2018-02-13T19:34:15.583Z,7.20
2018-02-13T19:36:43.019Z,6.40
2018-02-13T19:39:10.454Z,6.50
2018-02-13T19:41:37.885Z,7.20
2018-02-13T19:44:05.331Z,6.80
2018-02-13T19:46:32.766Z,8.37
2018-02-13T19:49:00.994Z,7.93
2018-02-13T19:51:28.430Z,9.90
2018-02-13T19:53:55.870Z,12.00
2018-02-13T19:56:23.312Z,11.47
2018-02-13T19:58:51.519Z,11.33
2018-02-13T20:01:18.959Z,10.67
2018-02-13T20:03:46.404Z,11.40
2018-02-13T20:06:13.839Z,10.70
2018-02-13T20:08:42.055Z,9.73
2018-02-13T20:11:10.251Z,9.00
2018-02-13T20:13:38.463Z,8.90
2018-02-13T20:16:05.906Z,7.60
2018-02-13T20:18:33.386Z,8.40
2018-02-13T20:21:00.783Z,8.33
2018-02-13T20:23:28.999Z,7.70
2018-02-13T20:25:57.199Z,7.77
2018-02-13T20:28:24.639Z,8.17
2018-02-13T20:30:52.083Z,8.60
2018-02-13T20:33:19.523Z,8.00
2018-02-13T20:35:47.727Z,6.47
2018-02-13T20:38:15.922Z,6.70
2018-02-13T20:40:44.127Z,6.50
2018-02-13T20:43:12.367Z,7.57
2018-02-13T20:45:39.779Z,7.27
2018-02-13T20:48:07.218Z,7.67
2018-02-13T20:50:34.654Z,7.23
2018-02-13T20:53:02.091Z,7.10
2018-02-13T20:55:29.527Z,7.90
2018-02-13T20:57:57.732Z,6.50
2018-02-13T21:00:25.939Z,7.93
2018-02-13T21:02:53.371Z,6.73
2018-02-13T21:05:20.814Z,7.77
2018-02-13T21:07:48.243Z,7.53
2018-02-13T21:10:15.955Z,6.87
2018-02-13T21:12:43.374Z,8.33
2018-02-13T21:15:10.815Z,7.90
2018-02-13T21:17:39.019Z,8.23
2018-02-13T21:20:07.231Z,7.70
2018-02-13T21:22:34.667Z,9.20
2018-02-13T21:25:02.108Z,7.53
2018-02-13T21:27:29.539Z,6.93
2018-02-13T21:29:56.983Z,7.50
2018-02-13T21:32:24.414Z,7.47
2018-02-13T21:34:52.615Z,7.80
2018-02-13T21:37:20.818Z,9.60
2018-02-13T21:39:49.026Z,7.90
2018-02-13T21:42:16.470Z,9.57
2018-02-13T21:44:43.902Z,9.60
2018-02-13T21:47:11.356Z,10.40
2018-02-13T21:49:39.550Z,9.87
2018-02-13T21:52:07.763Z,11.57
2018-02-13T21:54:35.959Z,11.80
2018-02-13T21:57:04.170Z,11.30
2018-02-13T21:59:31.607Z,10.83
2018-02-13T22:01:59.055Z,11.77
2018-02-13T22:04:26.495Z,11.50
2018-02-13T22:06:54.699Z,11.50
2018-02-13T22:09:22.899Z,10.20
2018-02-13T22:11:51.115Z,9.93
2018-02-13T22:14:18.555Z,10.87
2018-02-13T22:16:45.994Z,10.10
2018-02-13T22:19:13.438Z,9.93
2018-02-13T22:21:40.908Z,10.07
2018-02-13T22:24:08.319Z,9.07
2018-02-13T22:26:35.754Z,10.23
2018-02-13T22:29:03.194Z,9.97
2018-02-13T22:31:30.631Z,9.77
2018-02-13T22:33:58.838Z,10.37
2018-02-13T22:36:27.042Z,9.93
2018-02-13T22:38:55.251Z,11.03
2018-02-13T22:41:22.682Z,9.97
2018-02-13T22:43:50.131Z,10.80
2018-02-13T22:46:17.594Z,10.97
2018-02-13T22:48:45.035Z,10.90
2018-02-13T22:51:12.475Z,10.83
2018-02-13T22:53:39.919Z,10.00
2018-02-13T22:56:08.120Z,11.20
2018-02-13T22:58:36.330Z,10.70
2018-02-13T23:01:03.767Z,9.67
2018-02-13T23:03:31.215Z,10.80
2018-02-13T23:05:58.645Z,9.50
2018-02-13T23:08:26.095Z,11.20
2018-02-13T23:10:53.529Z,9.77
2018-02-13T23:13:21.734Z,9.60
2018-02-13T23:15:49.166Z,8.37
2018-02-13T23:18:16.607Z,9.67
2018-02-13T23:20:44.039Z,9.80
2018-02-13T23:23:11.478Z,8.47
2018-02-13T23:25:38.911Z,8.43
2018-02-13T23:28:07.138Z,8.80
2018-02-13T23:30:34.579Z,10.17
2018-02-13T23:33:02.007Z,9.90
2018-02-13T23:35:29.446Z,8.20
2018-02-13T23:37:56.888Z,9.93
2018-02-13T23:40:24.329Z,9.03
2018-02-13T23:42:52.533Z,9.90
2018-02-13T23:45:20.735Z,9.70
2018-02-13T23:47:48.167Z,8.50
2018-02-13T23:50:15.612Z,9.03
2018-02-13T23:52:43.039Z,10.13
2018-02-13T23:55:10.483Z,8.27
2018-02-13T23:57:37.923Z,8.80
